sensor_id;sensor_type;location;lat;lon;timestamp;temperature;humidity
20921;DHT22;10620;52.472;21.028;2022-09-09T00:00:55;12.00;99.90
20921;DHT22;10620;52.472;21.028;2022-09-09T00:06:01;12.00;99.90
20921;DHT22;10620;52.472;21.028;2022-09-09T00:11:00;12.00;99.90
20921;DHT22;10620;52.472;21.028;2022-09-09T00:13:34;11.90;99.90
20921;DHT22;10620;52.472;21.028;2022-09-09T00:16:06;12.00;99.90
20921;DHT22;10620;52.472;21.028;2022-09-09T00:23:40;12.00;99.90
20921;DHT22;10620;52.472;21.028;2022-09-09T00:26:12;11.80;99.90
20921;DHT22;10620;52.472;21.028;2022-09-09T00:31:12;12.10;99.90
20921;DHT22;10620;52.472;21.028;2022-09-09T00:33:42;11.90;99.90
20921;DHT22;10620;52.472;21.028;2022-09-09T00:36:12;11.80;99.90
20921;DHT22;10620;52.472;21.028;2022-09-09T00:38:45;11.70;99.90
20921;DHT22;10620;52.472;21.028;2022-09-09T00:41:17;11.40;99.90
20921;DHT22;10620;52.472;21.028;2022-09-09T00:46:20;11.70;99.90
20921;DHT22;10620;52.472;21.028;2022-09-09T00:53:58;11.70;99.90
20921;DHT22;10620;52.472;21.028;2022-09-09T00:59:00;11.70;99.90
20921;DHT22;10620;52.472;21.028;2022-09-09T01:01:33;11.60;99.90
20921;DHT22;10620;52.472;21.028;2022-09-09T01:04:03;11.60;99.90
20921;DHT22;10620;52.472;21.028;2022-09-09T01:06:34;11.60;99.90
20921;DHT22;10620;52.472;21.028;2022-09-09T01:09:10;11.60;99.90
20921;DHT22;10620;52.472;21.028;2022-09-09T01:11:46;11.60;99.90
20921;DHT22;10620;52.472;21.028;2022-09-09T01:14:24;11.60;99.90
20921;DHT22;10620;52.472;21.028;2022-09-09T01:16:56;11.60;99.90
20921;DHT22;10620;52.472;21.028;2022-09-09T01:19:33;11.70;99.90
20921;DHT22;10620;52.472;21.028;2022-09-09T01:22:08;11.60;99.90
20921;DHT22;10620;52.472;21.028;2022-09-09T01:24:42;11.60;99.90
20921;DHT22;10620;52.472;21.028;2022-09-09T01:27:48;11.60;99.90
20921;DHT22;10620;52.472;21.028;2022-09-09T01:30:18;11.60;99.90
20921;DHT22;10620;52.472;21.028;2022-09-09T01:32:49;11.60;99.90
20921;DHT22;10620;52.472;21.028;2022-09-09T01:35:22;11.60;99.90
20921;DHT22;10620;52.472;21.028;2022-09-09T01:37:58;11.70;99.90
20921;DHT22;10620;52.472;21.028;2022-09-09T01:40:27;11.60;99.90
20921;DHT22;10620;52.472;21.028;2022-09-09T01:42:58;11.70;99.90
20921;DHT22;10620;52.472;21.028;2022-09-09T01:45:27;11.70;99.90
20921;DHT22;10620;52.472;21.028;2022-09-09T01:47:56;11.70;99.90
20921;DHT22;10620;52.472;21.028;2022-09-09T01:50:39;11.70;99.90
20921;DHT22;10620;52.472;21.028;2022-09-09T01:53:08;11.70;99.90
20921;DHT22;10620;52.472;21.028;2022-09-09T01:55:38;11.70;99.90
20921;DHT22;10620;52.472;21.028;2022-09-09T01:58:19;11.70;99.90
20921;DHT22;10620;52.472;21.028;2022-09-09T02:00:54;11.70;99.90
20921;DHT22;10620;52.472;21.028;2022-09-09T02:03:27;11.70;99.90
20921;DHT22;10620;52.472;21.028;2022-09-09T02:06:10;11.70;99.90
20921;DHT22;10620;52.472;21.028;2022-09-09T02:08:43;11.70;99.90
20921;DHT22;10620;52.472;21.028;2022-09-09T02:11:15;11.70;99.90
20921;DHT22;10620;52.472;21.028;2022-09-09T02:14:12;11.70;99.90
20921;DHT22;10620;52.472;21.028;2022-09-09T02:16:47;11.70;99.90
20921;DHT22;10620;52.472;21.028;2022-09-09T02:19:18;11.70;99.90
20921;DHT22;10620;52.472;21.028;2022-09-09T02:22:06;11.70;99.90
20921;DHT22;10620;52.472;21.028;2022-09-09T02:24:36;11.70;99.90
20921;DHT22;10620;52.472;21.028;2022-09-09T02:27:12;11.70;99.90
20921;DHT22;10620;52.472;21.028;2022-09-09T02:29:45;11.70;99.90
20921;DHT22;10620;52.472;21.028;2022-09-09T02:32:17;11.70;99.90
20921;DHT22;10620;52.472;21.028;2022-09-09T02:34:47;11.60;99.90
20921;DHT22;10620;52.472;21.028;2022-09-09T02:37:17;11.70;99.90
20921;DHT22;10620;52.472;21.028;2022-09-09T02:39:51;11.70;99.90
20921;DHT22;10620;52.472;21.028;2022-09-09T02:42:21;11.60;99.90
20921;DHT22;10620;52.472;21.028;2022-09-09T02:44:54;11.60;99.90
20921;DHT22;10620;52.472;21.028;2022-09-09T02:47:29;11.60;99.90
20921;DHT22;10620;52.472;21.028;2022-09-09T02:50:08;11.70;99.90
20921;DHT22;10620;52.472;21.028;2022-09-09T02:52:49;11.60;99.90
20921;DHT22;10620;52.472;21.028;2022-09-09T02:55:23;11.60;99.90
20921;DHT22;10620;52.472;21.028;2022-09-09T02:57:56;11.70;99.90
20921;DHT22;10620;52.472;21.028;2022-09-09T03:00:29;11.70;99.90
20921;DHT22;10620;52.472;21.028;2022-09-09T03:03:01;11.70;99.90
20921;DHT22;10620;52.472;21.028;2022-09-09T03:05:29;11.70;99.90
20921;DHT22;10620;52.472;21.028;2022-09-09T03:07:59;11.60;99.90
20921;DHT22;10620;52.472;21.028;2022-09-09T03:10:27;11.60;99.90
20921;DHT22;10620;52.472;21.028;2022-09-09T03:12:58;11.70;99.90
20921;DHT22;10620;52.472;21.028;2022-09-09T03:15:31;11.70;99.90
20921;DHT22;10620;52.472;21.028;2022-09-09T03:18:00;11.60;99.90
20921;DHT22;10620;52.472;21.028;2022-09-09T03:20:29;11.70;99.90
20921;DHT22;10620;52.472;21.028;2022-09-09T03:22:58;11.70;99.90
20921;DHT22;10620;52.472;21.028;2022-09-09T03:25:27;11.70;99.90
20921;DHT22;10620;52.472;21.028;2022-09-09T03:27:57;11.60;99.90
20921;DHT22;10620;52.472;21.028;2022-09-09T03:30:26;11.70;99.90
20921;DHT22;10620;52.472;21.028;2022-09-09T03:32:57;11.70;99.90
20921;DHT22;10620;52.472;21.028;2022-09-09T03:35:30;11.70;99.90
20921;DHT22;10620;52.472;21.028;2022-09-09T03:38:00;11.70;99.90
20921;DHT22;10620;52.472;21.028;2022-09-09T03:40:31;11.70;99.90
20921;DHT22;10620;52.472;21.028;2022-09-09T03:43:00;11.70;99.90
20921;DHT22;10620;52.472;21.028;2022-09-09T03:45:29;11.70;99.90
20921;DHT22;10620;52.472;21.028;2022-09-09T03:47:59;11.70;99.90
20921;DHT22;10620;52.472;21.028;2022-09-09T03:50:31;11.70;99.90
20921;DHT22;10620;52.472;21.028;2022-09-09T03:53:00;11.70;99.90
20921;DHT22;10620;52.472;21.028;2022-09-09T03:55:29;11.70;99.90
20921;DHT22;10620;52.472;21.028;2022-09-09T03:57:57;11.70;99.90
20921;DHT22;10620;52.472;21.028;2022-09-09T04:00:30;11.70;99.90
20921;DHT22;10620;52.472;21.028;2022-09-09T04:03:00;11.70;99.90
20921;DHT22;10620;52.472;21.028;2022-09-09T04:05:29;11.70;99.90
20921;DHT22;10620;52.472;21.028;2022-09-09T04:07:58;11.80;99.90
20921;DHT22;10620;52.472;21.028;2022-09-09T04:10:27;11.70;99.90
20921;DHT22;10620;52.472;21.028;2022-09-09T04:12:57;11.80;99.90
20921;DHT22;10620;52.472;21.028;2022-09-09T04:15:26;11.80;99.90
20921;DHT22;10620;52.472;21.028;2022-09-09T04:17:55;11.80;99.90
20921;DHT22;10620;52.472;21.028;2022-09-09T04:20:25;11.80;99.90
20921;DHT22;10620;52.472;21.028;2022-09-09T04:22:53;11.70;99.90
20921;DHT22;10620;52.472;21.028;2022-09-09T04:25:23;11.80;99.90
20921;DHT22;10620;52.472;21.028;2022-09-09T04:27:53;11.70;99.90
20921;DHT22;10620;52.472;21.028;2022-09-09T04:30:22;11.70;99.90
20921;DHT22;10620;52.472;21.028;2022-09-09T04:32:50;11.80;99.90
20921;DHT22;10620;52.472;21.028;2022-09-09T04:35:19;11.80;99.90
20921;DHT22;10620;52.472;21.028;2022-09-09T04:37:49;11.80;99.90
20921;DHT22;10620;52.472;21.028;2022-09-09T04:40:18;11.80;99.90
20921;DHT22;10620;52.472;21.028;2022-09-09T04:42:47;11.80;99.90
20921;DHT22;10620;52.472;21.028;2022-09-09T04:45:17;11.80;99.90
20921;DHT22;10620;52.472;21.028;2022-09-09T04:47:46;11.80;99.90
20921;DHT22;10620;52.472;21.028;2022-09-09T04:50:14;11.80;99.90
20921;DHT22;10620;52.472;21.028;2022-09-09T04:52:46;11.80;99.90
20921;DHT22;10620;52.472;21.028;2022-09-09T04:55:17;11.80;99.90
20921;DHT22;10620;52.472;21.028;2022-09-09T04:57:46;11.80;99.90
20921;DHT22;10620;52.472;21.028;2022-09-09T05:00:15;11.80;99.90
20921;DHT22;10620;52.472;21.028;2022-09-09T05:02:44;11.80;99.90
20921;DHT22;10620;52.472;21.028;2022-09-09T05:05:13;11.80;99.90
20921;DHT22;10620;52.472;21.028;2022-09-09T05:07:42;11.80;99.90
20921;DHT22;10620;52.472;21.028;2022-09-09T05:10:11;11.90;99.90
20921;DHT22;10620;52.472;21.028;2022-09-09T05:12:51;11.90;99.90
20921;DHT22;10620;52.472;21.028;2022-09-09T05:15:20;11.80;99.90
20921;DHT22;10620;52.472;21.028;2022-09-09T05:17:49;11.90;99.90
20921;DHT22;10620;52.472;21.028;2022-09-09T05:20:19;11.90;99.90
20921;DHT22;10620;52.472;21.028;2022-09-09T05:22:48;11.90;99.90
20921;DHT22;10620;52.472;21.028;2022-09-09T05:25:22;11.90;99.90
20921;DHT22;10620;52.472;21.028;2022-09-09T05:27:53;12.00;99.90
20921;DHT22;10620;52.472;21.028;2022-09-09T05:30:22;12.00;99.90
20921;DHT22;10620;52.472;21.028;2022-09-09T05:32:55;12.00;99.90
20921;DHT22;10620;52.472;21.028;2022-09-09T05:35:24;12.00;99.90
20921;DHT22;10620;52.472;21.028;2022-09-09T05:37:53;12.00;99.90
20921;DHT22;10620;52.472;21.028;2022-09-09T05:40:23;12.00;99.90
20921;DHT22;10620;52.472;21.028;2022-09-09T05:42:54;12.10;99.90
20921;DHT22;10620;52.472;21.028;2022-09-09T05:45:23;12.10;99.90
20921;DHT22;10620;52.472;21.028;2022-09-09T05:47:52;12.00;99.90
20921;DHT22;10620;52.472;21.028;2022-09-09T05:50:22;12.10;99.90
20921;DHT22;10620;52.472;21.028;2022-09-09T05:52:57;12.10;99.90
20921;DHT22;10620;52.472;21.028;2022-09-09T05:55:26;12.00;99.90
20921;DHT22;10620;52.472;21.028;2022-09-09T05:57:56;12.10;99.90
20921;DHT22;10620;52.472;21.028;2022-09-09T06:00:25;12.10;99.90
20921;DHT22;10620;52.472;21.028;2022-09-09T06:02:54;12.10;99.90
20921;DHT22;10620;52.472;21.028;2022-09-09T06:05:23;12.10;99.90
20921;DHT22;10620;52.472;21.028;2022-09-09T06:07:54;12.10;99.90
20921;DHT22;10620;52.472;21.028;2022-09-09T06:10:24;12.20;99.90
20921;DHT22;10620;52.472;21.028;2022-09-09T06:12:53;10.60;99.90
20921;DHT22;10620;52.472;21.028;2022-09-09T06:15:23;12.20;99.90
20921;DHT22;10620;52.472;21.028;2022-09-09T06:17:54;12.20;99.90
20921;DHT22;10620;52.472;21.028;2022-09-09T06:20:22;12.20;99.90
20921;DHT22;10620;52.472;21.028;2022-09-09T06:22:52;12.20;99.90
20921;DHT22;10620;52.472;21.028;2022-09-09T06:25:20;12.20;99.90
20921;DHT22;10620;52.472;21.028;2022-09-09T06:27:49;12.30;99.90
20921;DHT22;10620;52.472;21.028;2022-09-09T06:30:18;12.30;99.90
20921;DHT22;10620;52.472;21.028;2022-09-09T06:32:48;12.20;99.90
20921;DHT22;10620;52.472;21.028;2022-09-09T06:35:17;12.30;99.90
20921;DHT22;10620;52.472;21.028;2022-09-09T06:37:46;12.30;99.90
20921;DHT22;10620;52.472;21.028;2022-09-09T06:40:18;12.30;99.90
20921;DHT22;10620;52.472;21.028;2022-09-09T06:42:47;12.30;99.90
20921;DHT22;10620;52.472;21.028;2022-09-09T06:45:55;12.40;99.90
20921;DHT22;10620;52.472;21.028;2022-09-09T06:48:25;12.40;99.90
20921;DHT22;10620;52.472;21.028;2022-09-09T06:51:05;12.50;99.90
20921;DHT22;10620;52.472;21.028;2022-09-09T06:53:35;12.50;99.90
20921;DHT22;10620;52.472;21.028;2022-09-09T06:56:17;12.50;99.90
20921;DHT22;10620;52.472;21.028;2022-09-09T06:58:47;12.50;99.90
20921;DHT22;10620;52.472;21.028;2022-09-09T07:01:23;12.60;99.90
20921;DHT22;10620;52.472;21.028;2022-09-09T07:03:54;12.60;99.90
20921;DHT22;10620;52.472;21.028;2022-09-09T07:06:24;12.70;99.90
20921;DHT22;10620;52.472;21.028;2022-09-09T07:08:53;12.70;99.90
20921;DHT22;10620;52.472;21.028;2022-09-09T07:11:26;12.90;99.90
20921;DHT22;10620;52.472;21.028;2022-09-09T07:13:57;12.90;99.90
20921;DHT22;10620;52.472;21.028;2022-09-09T07:16:26;13.00;99.90
20921;DHT22;10620;52.472;21.028;2022-09-09T07:18:59;12.90;99.90
20921;DHT22;10620;52.472;21.028;2022-09-09T07:21:30;12.90;99.90
20921;DHT22;10620;52.472;21.028;2022-09-09T07:24:00;12.90;99.90
20921;DHT22;10620;52.472;21.028;2022-09-09T07:26:29;12.90;99.90
20921;DHT22;10620;52.472;21.028;2022-09-09T07:29:00;12.90;99.90
20921;DHT22;10620;52.472;21.028;2022-09-09T07:31:30;12.90;99.90
20921;DHT22;10620;52.472;21.028;2022-09-09T07:34:01;13.00;99.90
20921;DHT22;10620;52.472;21.028;2022-09-09T07:36:30;13.00;99.90
20921;DHT22;10620;52.472;21.028;2022-09-09T07:39:02;13.00;99.90
20921;DHT22;10620;52.472;21.028;2022-09-09T07:41:33;13.00;99.90
20921;DHT22;10620;52.472;21.028;2022-09-09T07:44:07;13.10;99.90
20921;DHT22;10620;52.472;21.028;2022-09-09T07:46:36;13.10;99.90
20921;DHT22;10620;52.472;21.028;2022-09-09T07:49:10;13.10;99.90
20921;DHT22;10620;52.472;21.028;2022-09-09T07:51:40;13.20;99.90
20921;DHT22;10620;52.472;21.028;2022-09-09T07:54:11;13.20;99.90
20921;DHT22;10620;52.472;21.028;2022-09-09T07:56:43;13.20;99.90
20921;DHT22;10620;52.472;21.028;2022-09-09T07:59:12;13.30;99.90
20921;DHT22;10620;52.472;21.028;2022-09-09T08:01:43;13.20;99.90
20921;DHT22;10620;52.472;21.028;2022-09-09T08:04:17;13.20;99.90
20921;DHT22;10620;52.472;21.028;2022-09-09T08:06:48;13.20;99.90
20921;DHT22;10620;52.472;21.028;2022-09-09T08:09:18;13.20;99.90
20921;DHT22;10620;52.472;21.028;2022-09-09T08:11:48;13.20;99.90
20921;DHT22;10620;52.472;21.028;2022-09-09T08:14:18;13.30;99.90
20921;DHT22;10620;52.472;21.028;2022-09-09T08:16:47;13.40;99.90
20921;DHT22;10620;52.472;21.028;2022-09-09T08:19:21;13.50;99.90
20921;DHT22;10620;52.472;21.028;2022-09-09T08:21:52;13.50;99.90
20921;DHT22;10620;52.472;21.028;2022-09-09T08:24:21;13.60;99.90
20921;DHT22;10620;52.472;21.028;2022-09-09T08:26:51;13.60;99.90
20921;DHT22;10620;52.472;21.028;2022-09-09T08:29:23;13.70;99.90
20921;DHT22;10620;52.472;21.028;2022-09-09T08:31:54;13.70;99.90
20921;DHT22;10620;52.472;21.028;2022-09-09T08:34:27;13.70;99.90
20921;DHT22;10620;52.472;21.028;2022-09-09T08:37:00;13.80;99.90
20921;DHT22;10620;52.472;21.028;2022-09-09T08:39:35;13.70;99.90
20921;DHT22;10620;52.472;21.028;2022-09-09T08:42:08;13.70;99.90
20921;DHT22;10620;52.472;21.028;2022-09-09T08:44:47;13.70;99.90
20921;DHT22;10620;52.472;21.028;2022-09-09T08:47:20;13.80;99.90
20921;DHT22;10620;52.472;21.028;2022-09-09T08:50:07;13.80;99.90
20921;DHT22;10620;52.472;21.028;2022-09-09T08:52:41;13.90;99.90
20921;DHT22;10620;52.472;21.028;2022-09-09T08:55:17;13.90;99.90
20921;DHT22;10620;52.472;21.028;2022-09-09T08:57:50;13.90;99.90
20921;DHT22;10620;52.472;21.028;2022-09-09T09:00:20;13.90;99.90
20921;DHT22;10620;52.472;21.028;2022-09-09T09:02:53;13.90;99.90
20921;DHT22;10620;52.472;21.028;2022-09-09T09:05:27;14.00;99.90
20921;DHT22;10620;52.472;21.028;2022-09-09T09:08:03;13.90;99.90
20921;DHT22;10620;52.472;21.028;2022-09-09T09:10:39;14.00;99.90
20921;DHT22;10620;52.472;21.028;2022-09-09T09:13:17;13.90;99.90
20921;DHT22;10620;52.472;21.028;2022-09-09T09:15:51;14.00;99.90
20921;DHT22;10620;52.472;21.028;2022-09-09T09:18:21;14.00;99.90
20921;DHT22;10620;52.472;21.028;2022-09-09T09:20:53;14.00;99.90
20921;DHT22;10620;52.472;21.028;2022-09-09T09:23:23;14.00;99.90
20921;DHT22;10620;52.472;21.028;2022-09-09T09:25:58;14.00;99.90
20921;DHT22;10620;52.472;21.028;2022-09-09T09:28:29;14.00;99.90
20921;DHT22;10620;52.472;21.028;2022-09-09T09:31:05;14.10;99.90
20921;DHT22;10620;52.472;21.028;2022-09-09T09:33:38;14.10;99.90
20921;DHT22;10620;52.472;21.028;2022-09-09T09:36:14;14.20;99.90
20921;DHT22;10620;52.472;21.028;2022-09-09T09:38:52;14.20;99.90
20921;DHT22;10620;52.472;21.028;2022-09-09T09:41:43;14.20;99.90
20921;DHT22;10620;52.472;21.028;2022-09-09T09:44:25;14.30;99.90
20921;DHT22;10620;52.472;21.028;2022-09-09T09:47:05;14.30;99.90
20921;DHT22;10620;52.472;21.028;2022-09-09T09:49:34;14.30;99.90
20921;DHT22;10620;52.472;21.028;2022-09-09T09:52:05;14.50;99.90
20921;DHT22;10620;52.472;21.028;2022-09-09T09:54:37;14.50;99.90
20921;DHT22;10620;52.472;21.028;2022-09-09T09:57:08;14.50;99.90
20921;DHT22;10620;52.472;21.028;2022-09-09T09:59:38;14.50;99.90
20921;DHT22;10620;52.472;21.028;2022-09-09T10:02:25;14.50;99.90
20921;DHT22;10620;52.472;21.028;2022-09-09T10:05:12;14.40;99.90
20921;DHT22;10620;52.472;21.028;2022-09-09T10:07:45;14.40;99.90
20921;DHT22;10620;52.472;21.028;2022-09-09T10:10:16;14.40;99.90
20921;DHT22;10620;52.472;21.028;2022-09-09T10:12:53;14.30;99.90
20921;DHT22;10620;52.472;21.028;2022-09-09T10:15:32;14.30;99.90
20921;DHT22;10620;52.472;21.028;2022-09-09T10:18:10;14.30;99.90
20921;DHT22;10620;52.472;21.028;2022-09-09T10:20:42;14.30;99.90
20921;DHT22;10620;52.472;21.028;2022-09-09T10:23:18;14.30;99.90
20921;DHT22;10620;52.472;21.028;2022-09-09T10:25:56;14.30;99.90
20921;DHT22;10620;52.472;21.028;2022-09-09T10:28:39;14.30;99.90
20921;DHT22;10620;52.472;21.028;2022-09-09T10:31:17;14.30;99.90
20921;DHT22;10620;52.472;21.028;2022-09-09T10:33:49;14.30;99.90
20921;DHT22;10620;52.472;21.028;2022-09-09T10:36:19;14.30;99.90
20921;DHT22;10620;52.472;21.028;2022-09-09T10:38:52;14.40;99.90
20921;DHT22;10620;52.472;21.028;2022-09-09T10:41:25;14.40;99.90
20921;DHT22;10620;52.472;21.028;2022-09-09T10:46:47;14.40;99.90
20921;DHT22;10620;52.472;21.028;2022-09-09T10:49:22;14.40;99.90
20921;DHT22;10620;52.472;21.028;2022-09-09T10:51:56;14.40;99.90
20921;DHT22;10620;52.472;21.028;2022-09-09T10:54:38;14.50;99.90
20921;DHT22;10620;52.472;21.028;2022-09-09T10:57:10;14.50;99.90
20921;DHT22;10620;52.472;21.028;2022-09-09T10:59:42;14.60;99.90
20921;DHT22;10620;52.472;21.028;2022-09-09T11:02:14;14.60;99.90
20921;DHT22;10620;52.472;21.028;2022-09-09T11:04:48;14.50;99.90
20921;DHT22;10620;52.472;21.028;2022-09-09T11:07:27;14.50;99.90
20921;DHT22;10620;52.472;21.028;2022-09-09T11:10:00;14.40;99.90
20921;DHT22;10620;52.472;21.028;2022-09-09T11:12:30;14.40;99.90
20921;DHT22;10620;52.472;21.028;2022-09-09T11:15:02;14.50;99.90
20921;DHT22;10620;52.472;21.028;2022-09-09T11:17:35;14.50;99.90
20921;DHT22;10620;52.472;21.028;2022-09-09T11:20:05;14.50;99.90
20921;DHT22;10620;52.472;21.028;2022-09-09T11:22:34;14.50;99.90
20921;DHT22;10620;52.472;21.028;2022-09-09T11:25:08;14.50;99.90
20921;DHT22;10620;52.472;21.028;2022-09-09T11:27:41;14.40;99.90
20921;DHT22;10620;52.472;21.028;2022-09-09T11:30:16;14.50;99.90
20921;DHT22;10620;52.472;21.028;2022-09-09T11:35:58;14.40;99.90
20921;DHT22;10620;52.472;21.028;2022-09-09T11:38:36;14.40;99.90
20921;DHT22;10620;52.472;21.028;2022-09-09T11:41:08;14.40;99.90
20921;DHT22;10620;52.472;21.028;2022-09-09T11:43:39;14.40;99.90
20921;DHT22;10620;52.472;21.028;2022-09-09T11:46:08;14.50;99.90
20921;DHT22;10620;52.472;21.028;2022-09-09T11:48:38;14.50;99.90
20921;DHT22;10620;52.472;21.028;2022-09-09T11:51:11;14.50;99.90
20921;DHT22;10620;52.472;21.028;2022-09-09T11:53:50;14.60;99.90
20921;DHT22;10620;52.472;21.028;2022-09-09T11:56:31;14.60;99.90
20921;DHT22;10620;52.472;21.028;2022-09-09T11:59:00;14.70;99.90
20921;DHT22;10620;52.472;21.028;2022-09-09T12:01:34;14.60;99.90
20921;DHT22;10620;52.472;21.028;2022-09-09T12:04:15;14.60;99.90
20921;DHT22;10620;52.472;21.028;2022-09-09T12:06:50;14.60;99.90
20921;DHT22;10620;52.472;21.028;2022-09-09T12:09:21;14.80;99.90
20921;DHT22;10620;52.472;21.028;2022-09-09T12:11:53;14.80;99.90
20921;DHT22;10620;52.472;21.028;2022-09-09T12:14:37;14.80;99.90
20921;DHT22;10620;52.472;21.028;2022-09-09T12:17:09;15.00;99.90
20921;DHT22;10620;52.472;21.028;2022-09-09T12:19:38;15.00;99.90
20921;DHT22;10620;52.472;21.028;2022-09-09T12:22:07;15.00;99.90
20921;DHT22;10620;52.472;21.028;2022-09-09T12:24:43;14.90;99.90
20921;DHT22;10620;52.472;21.028;2022-09-09T12:27:17;14.90;99.90
20921;DHT22;10620;52.472;21.028;2022-09-09T12:29:49;14.80;99.90
20921;DHT22;10620;52.472;21.028;2022-09-09T12:32:22;14.80;99.90
20921;DHT22;10620;52.472;21.028;2022-09-09T12:34:52;14.70;99.90
20921;DHT22;10620;52.472;21.028;2022-09-09T12:37:27;14.60;99.90
20921;DHT22;10620;52.472;21.028;2022-09-09T12:39:58;14.60;99.90
20921;DHT22;10620;52.472;21.028;2022-09-09T12:42:29;14.60;99.90
20921;DHT22;10620;52.472;21.028;2022-09-09T12:45:14;14.60;99.90
20921;DHT22;10620;52.472;21.028;2022-09-09T12:47:45;14.60;99.90
20921;DHT22;10620;52.472;21.028;2022-09-09T12:50:16;14.70;99.90
20921;DHT22;10620;52.472;21.028;2022-09-09T12:52:45;14.60;99.90
20921;DHT22;10620;52.472;21.028;2022-09-09T12:55:19;14.70;99.90
20921;DHT22;10620;52.472;21.028;2022-09-09T12:57:50;14.70;99.90
20921;DHT22;10620;52.472;21.028;2022-09-09T13:00:20;14.60;99.90
20921;DHT22;10620;52.472;21.028;2022-09-09T13:02:50;14.50;99.90
20921;DHT22;10620;52.472;21.028;2022-09-09T13:05:21;14.40;99.90
20921;DHT22;10620;52.472;21.028;2022-09-09T13:07:50;14.40;99.90
20921;DHT22;10620;52.472;21.028;2022-09-09T13:10:21;14.30;99.90
20921;DHT22;10620;52.472;21.028;2022-09-09T13:13:04;14.30;99.90
20921;DHT22;10620;52.472;21.028;2022-09-09T13:15:34;14.40;99.90
20921;DHT22;10620;52.472;21.028;2022-09-09T13:18:03;14.30;99.90
20921;DHT22;10620;52.472;21.028;2022-09-09T13:20:35;14.30;99.90
20921;DHT22;10620;52.472;21.028;2022-09-09T13:23:04;14.40;99.90
20921;DHT22;10620;52.472;21.028;2022-09-09T13:25:33;14.50;99.90
20921;DHT22;10620;52.472;21.028;2022-09-09T13:28:20;14.50;99.90
20921;DHT22;10620;52.472;21.028;2022-09-09T13:30:55;14.60;99.90
20921;DHT22;10620;52.472;21.028;2022-09-09T13:33:31;14.70;99.90
20921;DHT22;10620;52.472;21.028;2022-09-09T13:36:01;14.80;99.90
20921;DHT22;10620;52.472;21.028;2022-09-09T13:38:32;14.90;99.90
20921;DHT22;10620;52.472;21.028;2022-09-09T13:41:02;15.00;99.90
20921;DHT22;10620;52.472;21.028;2022-09-09T13:43:34;14.90;99.90
20921;DHT22;10620;52.472;21.028;2022-09-09T13:46:03;14.90;99.90
20921;DHT22;10620;52.472;21.028;2022-09-09T13:48:33;14.90;99.90
20921;DHT22;10620;52.472;21.028;2022-09-09T13:51:03;14.80;99.90
20921;DHT22;10620;52.472;21.028;2022-09-09T13:53:32;14.70;99.90
20921;DHT22;10620;52.472;21.028;2022-09-09T13:56:01;14.60;99.90
20921;DHT22;10620;52.472;21.028;2022-09-09T13:58:30;14.60;99.90
20921;DHT22;10620;52.472;21.028;2022-09-09T14:01:00;14.60;99.90
20921;DHT22;10620;52.472;21.028;2022-09-09T14:03:29;14.60;99.90
20921;DHT22;10620;52.472;21.028;2022-09-09T14:05:57;14.70;99.90
20921;DHT22;10620;52.472;21.028;2022-09-09T14:08:26;14.70;99.90
20921;DHT22;10620;52.472;21.028;2022-09-09T14:10:56;14.70;99.90
20921;DHT22;10620;52.472;21.028;2022-09-09T14:13:26;14.70;99.90
20921;DHT22;10620;52.472;21.028;2022-09-09T14:15:55;14.60;99.90
20921;DHT22;10620;52.472;21.028;2022-09-09T14:18:25;14.60;99.90
20921;DHT22;10620;52.472;21.028;2022-09-09T14:20:54;14.50;99.90
20921;DHT22;10620;52.472;21.028;2022-09-09T14:23:23;14.40;99.90
20921;DHT22;10620;52.472;21.028;2022-09-09T14:25:52;14.40;99.90
20921;DHT22;10620;52.472;21.028;2022-09-09T14:28:20;14.30;99.90
20921;DHT22;10620;52.472;21.028;2022-09-09T14:31:09;14.30;99.90
20921;DHT22;10620;52.472;21.028;2022-09-09T14:33:39;14.30;99.90
20921;DHT22;10620;52.472;21.028;2022-09-09T14:36:08;14.30;99.90
20921;DHT22;10620;52.472;21.028;2022-09-09T14:38:37;14.40;99.90
20921;DHT22;10620;52.472;21.028;2022-09-09T14:41:07;14.40;99.90
20921;DHT22;10620;52.472;21.028;2022-09-09T14:43:37;14.40;99.90
20921;DHT22;10620;52.472;21.028;2022-09-09T14:46:06;14.50;99.90
20921;DHT22;10620;52.472;21.028;2022-09-09T14:48:35;14.60;99.90
20921;DHT22;10620;52.472;21.028;2022-09-09T14:51:06;14.60;99.90
20921;DHT22;10620;52.472;21.028;2022-09-09T14:53:35;14.70;99.90
20921;DHT22;10620;52.472;21.028;2022-09-09T14:56:05;14.70;99.90
20921;DHT22;10620;52.472;21.028;2022-09-09T14:58:35;14.80;99.90
20921;DHT22;10620;52.472;21.028;2022-09-09T15:01:05;14.80;99.90
20921;DHT22;10620;52.472;21.028;2022-09-09T15:03:34;14.80;99.90
20921;DHT22;10620;52.472;21.028;2022-09-09T15:06:05;14.90;99.90
20921;DHT22;10620;52.472;21.028;2022-09-09T15:08:35;14.80;99.90
20921;DHT22;10620;52.472;21.028;2022-09-09T15:11:09;14.70;99.90
20921;DHT22;10620;52.472;21.028;2022-09-09T15:13:38;14.70;99.90
20921;DHT22;10620;52.472;21.028;2022-09-09T15:16:08;14.70;99.90
20921;DHT22;10620;52.472;21.028;2022-09-09T15:18:37;14.70;99.90
20921;DHT22;10620;52.472;21.028;2022-09-09T15:21:10;14.60;99.90
20921;DHT22;10620;52.472;21.028;2022-09-09T15:23:40;14.60;99.90
20921;DHT22;10620;52.472;21.028;2022-09-09T15:26:09;14.60;99.90
20921;DHT22;10620;52.472;21.028;2022-09-09T15:28:38;14.50;99.90
20921;DHT22;10620;52.472;21.028;2022-09-09T15:31:09;14.50;99.90
20921;DHT22;10620;52.472;21.028;2022-09-09T15:33:38;14.50;99.90
20921;DHT22;10620;52.472;21.028;2022-09-09T15:36:14;14.40;99.90
20921;DHT22;10620;52.472;21.028;2022-09-09T15:38:44;14.40;99.90
20921;DHT22;10620;52.472;21.028;2022-09-09T15:41:13;14.30;99.90
20921;DHT22;10620;52.472;21.028;2022-09-09T15:43:43;14.30;99.90
20921;DHT22;10620;52.472;21.028;2022-09-09T15:46:26;14.30;99.90
20921;DHT22;10620;52.472;21.028;2022-09-09T15:48:56;14.30;99.90
20921;DHT22;10620;52.472;21.028;2022-09-09T15:51:25;14.20;99.90
20921;DHT22;10620;52.472;21.028;2022-09-09T15:54:11;14.20;99.90
20921;DHT22;10620;52.472;21.028;2022-09-09T15:56:40;14.20;99.90
20921;DHT22;10620;52.472;21.028;2022-09-09T15:59:09;14.10;99.90
20921;DHT22;10620;52.472;21.028;2022-09-09T16:01:39;14.10;99.90
20921;DHT22;10620;52.472;21.028;2022-09-09T16:04:09;14.10;99.90
20921;DHT22;10620;52.472;21.028;2022-09-09T16:06:38;14.10;99.90
20921;DHT22;10620;52.472;21.028;2022-09-09T16:09:07;14.10;99.90
20921;DHT22;10620;52.472;21.028;2022-09-09T16:11:38;14.10;99.90
20921;DHT22;10620;52.472;21.028;2022-09-09T16:14:07;14.10;99.90